Hlavní strana
METAR-TAF:

METAR-TAF

Letiště :

Kulusuk, Grónsko

zeměpisná šířka: 65-35N, zeměpisná délka: 037-09W, výška: 35 m

Aktuální stav počasí

Zpráva byla vytvořena před 41 minutami, v 08:50 UTC
Jižní vítr 5 kt
Teplota -2°C
Vlhkost vzduchu 80%
Tlak 994 hPa
Viditelnost 10 km a více

METAR: BGKK 170850Z AUTO 17005KT 9999NDV BKN031/// M02/M05 Q0994

Čas: 07:31 (09:31 UTC)

Předpověď počasí

Zpráva byla vytvořena před 19 hodinami a 18 minutami, v 14:13 UTC
Předpověď platná od 16 v 15 UTC do 16 v 19 UTC
vítr z různých směrů 5 kt
Viditelnost 10 km a více
Skoro jasno ve výšce 5000 ft
Oblačno až skoro zataženo ve výšce 8000 ft
Pravděpodobnost 40%
od 16 v 15 UTC do 16 v 19 UTC
Viditelnost: 3500 m
Oblačno až skoro zataženo ve výšce 2000 ft
dešťové přeháňky, sníh

TAF: BGKK 161413Z 1615/1619 VRB05KT 9999 FEW050 BKN080 PROB40 1615/1619 3500 SHRASN BKN020

Stav a předpovědi počasí z více než 4 000 letišť (zprávy METAR a TAF).

Červené a žluté tečky na mapě představují dostupné meteorologické stanice.

Když kurzor umístíte na tečku, zobrazí se název stanice.

Pak kliknutím zobrazíte stav a předpověď počasí.

Chcete-li změnit mapu, kliknutím na zelené tlačítko se znaménkem +mapu přiblížíte, kliknutím na zelené tlačítko se znaménkem – mapu oddálíte a kliknutím na zelené šipky přejdete na sousední mapy.


METAR-TAF: